Time;durP1;ratioP1;P1;durP2;ratioP2;P2;SDS_P1;SDS_P2;PMS_P1;PMS_P2;Temp;Humidity;BMP_temperature;BMP_pressure;BME280_temperature;BME280_humidity;BME280_pressure;Samples;Min_cycle;Max_cycle;Signal;HPM_P1;HPM_P2
2022/10/31 00:01:39;;;;;;;;;;;;;;;12.54;99.27;99381.86;1802719;79;20482;-50
2022/10/31 00:04:06;;;;;;;;;;;;;;;12.53;99.56;99381.47;1777832;79;20435;-47
2022/10/31 00:06:32;;;;;;;;;;;;;;;12.53;99.16;99389.39;1790263;79;20119;-50
2022/10/31 00:09:01;;;;;;;;;;;;;;;12.53;99.64;99396.46;1785233;79;20519;-49
2022/10/31 00:11:27;;;;;;;;;;;;;;;12.51;100.00;99396.55;1804029;78;20110;-51
2022/10/31 00:13:54;;;;;;;;;;;;;;;12.48;100.00;99401.56;1777920;79;20102;-50
2022/10/31 00:16:23;;;;;;;;;;;;;;;12.47;99.63;99404.28;1744932;81;20157;-46
2022/10/31 00:18:51;;;;;;;;;;;;;;;12.43;99.27;99398.83;1773932;80;20397;-46
2022/10/31 00:21:19;;;;;;;;;;;;;;;12.43;99.32;99410.70;1748744;80;20113;-50
2022/10/31 00:23:45;;;;;;;;;;;;;;;12.40;99.11;99412.19;1778507;80;20117;-49
2022/10/31 00:26:12;;;;;;;;;;;;;;;12.40;98.96;99412.19;1798273;78;20134;-50
2022/10/31 00:28:39;;;;;;;;;;;;;;;12.41;99.11;99412.59;1782594;79;20122;-47
2022/10/31 00:31:07;;;;;;;;;;;;;;;12.39;99.92;99404.77;1785709;78;20102;-48
2022/10/31 00:33:36;;;;;;;;;;;;;;;12.37;100.00;99413.69;1786688;78;20410;-47
2022/10/31 00:36:04;;;;;;;;;;;;;;;12.34;99.50;99412.58;1788075;78;20223;-47
2022/10/31 00:38:31;;;;;;;;;;;;;;;12.32;100.00;99409.19;1804348;79;20124;-49
2022/10/31 00:40:57;;;;;;;;;;;;;;;12.30;100.00;99409.28;1800626;79;20422;-47
2022/10/31 00:43:24;;;;;;;;;;;;;;;12.30;99.96;99404.00;1780066;79;20502;-48
2022/10/31 00:45:50;;;;;;;;;;;;;;;12.30;100.00;99404.00;1781810;79;20408;-47
2022/10/31 00:48:17;;;;;;;;;;;;;;;12.26;99.70;99404.66;1799348;78;20110;-48
2022/10/31 00:50:43;;;;;;;;;;;;;;;12.29;99.50;99404.45;1799356;78;20494;-48
2022/10/31 00:53:10;;;;;;;;;;;;;;;12.29;99.74;99405.77;1782907;79;20726;-48
2022/10/31 00:55:36;;;;;;;;;;;;;;;12.30;99.70;99410.59;1777751;79;20467;-47
2022/10/31 00:58:03;;;;;;;;;;;;;;;12.28;100.00;99409.84;1774966;80;20422;-46
2022/10/31 01:03:52;;;;;;;;;;;;;;;12.26;100.00;99415.20;1776825;79;20119;-51
2022/10/31 01:06:18;;;;;;;;;;;;;;;12.26;100.00;99415.66;1806146;78;20482;-50
2022/10/31 01:08:47;;;;;;;;;;;;;;;12.25;100.00;99417.45;1772316;80;20173;-48
2022/10/31 01:11:17;;;;;;;;;;;;;;;12.21;100.00;99417.27;1784348;79;20110;-51
2022/10/31 01:13:44;;;;;;;;;;;;;;;12.18;100.00;99416.13;1793993;78;20133;-51
2022/10/31 01:16:13;;;;;;;;;;;;;;;12.16;100.00;99416.69;1797825;78;20109;-47
2022/10/31 01:18:40;;;;;;;;;;;;;;;12.13;100.00;99417.34;1789468;79;20130;-47
2022/10/31 01:21:09;;;;;;;;;;;;;;;12.12;100.00;99412.55;1783498;79;20126;-48
2022/10/31 01:23:36;;;;;;;;;;;;;;;12.10;100.00;99407.84;1786148;78;20130;-51
2022/10/31 01:26:09;;;;;;;;;;;;;;;12.09;100.00;99402.17;1796523;78;20185;-47
2022/10/31 01:28:38;;;;;;;;;;;;;;;12.06;99.83;99404.54;1785179;79;20114;-48
2022/10/31 01:31:07;;;;;;;;;;;;;;;12.04;99.66;99404.23;1795249;78;20715;-48
2022/10/31 01:33:34;;;;;;;;;;;;;;;12.01;99.56;99402.64;1790790;79;20509;-50
2022/10/31 01:36:01;;;;;;;;;;;;;;;12.00;100.00;99407.52;1799146;79;20111;-48
2022/10/31 01:38:28;;;;;;;;;;;;;;;11.98;100.00;99399.34;1804015;78;20114;-51
2022/10/31 01:40:55;;;;;;;;;;;;;;;11.96;100.00;99403.86;1785282;78;20103;-48
2022/10/31 01:43:21;;;;;;;;;;;;;;;11.94;100.00;99399.16;1772330;79;20111;-49
2022/10/31 01:45:51;;;;;;;;;;;;;;;11.93;100.00;99395.64;1772418;79;20122;-49
2022/10/31 01:48:20;;;;;;;;;;;;;;;11.95;100.00;99402.15;1794187;79;20105;-49
2022/10/31 01:50:48;;;;;;;;;;;;;;;11.95;100.00;99398.19;1798317;78;20090;-50
2022/10/31 01:53:15;;;;;;;;;;;;;;;11.96;100.00;99398.11;1798857;78;20114;-50
2022/10/31 01:55:44;;;;;;;;;;;;;;;11.96;100.00;99389.36;1794432;78;20528;-49
2022/10/31 01:58:17;;;;;;;;;;;;;;;11.94;100.00;99396.52;1786058;78;20106;-47
2022/10/31 02:00:46;;;;;;;;;;;;;;;11.95;100.00;99397.75;1786143;79;20176;-50
2022/10/31 02:03:13;;;;;;;;;;;;;;;11.96;100.00;99399.91;1774664;79;20111;-49
2022/10/31 02:05:41;;;;;;;;;;;;;;;11.98;100.00;99398.02;1793036;79;20106;-47
2022/10/31 02:08:17;;;;;;;;;;;;;;;11.98;100.00;99399.34;1779006;78;20419;-49
2022/10/31 02:10:44;;;;;;;;;;;;;;;11.96;100.00;99397.27;1804013;79;20090;-50
2022/10/31 02:13:12;;;;;;;;;;;;;;;11.93;100.00;99393.01;1802051;78;20138;-48
2022/10/31 02:15:40;;;;;;;;;;;;;;;11.92;100.00;99399.23;1782040;79;20111;-49
2022/10/31 02:18:07;;;;;;;;;;;;;;;11.90;100.00;99394.05;1784505;78;20101;-48
2022/10/31 02:20:53;;;;;;;;;;;;;;;11.93;100.00;99392.17;1788289;79;20107;-49
2022/10/31 02:23:26;;;;;;;;;;;;;;;11.89;100.00;99397.58;1781111;79;20103;-47
2022/10/31 02:26:14;;;;;;;;;;;;;;;11.88;100.00;99399.85;1779284;78;20130;-50
2022/10/31 02:29:01;;;;;;;;;;;;;;;11.86;100.00;99399.09;1800165;78;20134;-48
2022/10/31 02:31:43;;;;;;;;;;;;;;;11.84;100.00;99396.16;1778807;79;20133;-48
2022/10/31 02:34:13;;;;;;;;;;;;;;;11.84;100.00;99403.61;1791448;79;20143;-47
2022/10/31 02:36:56;;;;;;;;;;;;;;;11.84;100.00;99409.33;1792289;79;20102;-50
2022/10/31 02:39:26;;;;;;;;;;;;;;;11.85;100.00;99407.09;1781822;79;20102;-48
2022/10/31 02:42:15;;;;;;;;;;;;;;;11.83;100.00;99405.02;1776813;77;20132;-48
2022/10/31 02:45:01;;;;;;;;;;;;;;;11.79;100.00;99403.03;1768262;80;20140;-47
2022/10/31 02:47:29;;;;;;;;;;;;;;;11.80;100.00;99408.66;1764040;80;20113;-47
2022/10/31 02:50:14;;;;;;;;;;;;;;;11.78;100.00;99411.86;1754626;80;20117;-47
2022/10/31 02:52:41;;;;;;;;;;;;;;;11.74;100.00;99409.03;1765462;80;20484;-47
2022/10/31 02:55:12;;;;;;;;;;;;;;;11.72;100.00;99411.75;1754498;79;20545;-49
2022/10/31 02:57:40;;;;;;;;;;;;;;;11.73;100.00;99415.23;1780540;79;20442;-48
2022/10/31 03:00:08;;;;;;;;;;;;;;;11.70;100.00;99416.27;1775683;80;20091;-49
2022/10/31 03:02:55;;;;;;;;;;;;;;;11.68;100.00;99419.94;1756110;80;20128;-47
2022/10/31 03:05:55;;;;;;;;;;;;;;;11.67;100.00;99416.43;1721704;81;20183;-46
2022/10/31 03:08:28;;;;;;;;;;;;;;;11.67;100.00;99415.59;1757617;80;20113;-47
2022/10/31 03:11:06;;;;;;;;;;;;;;;11.66;100.00;99412.56;1768579;80;20104;-48
2022/10/31 03:13:50;;;;;;;;;;;;;;;11.65;100.00;99414.36;1774539;80;20113;-49
2022/10/31 03:16:36;;;;;;;;;;;;;;;11.67;100.00;99415.11;1758286;80;20113;-47
2022/10/31 03:19:11;;;;;;;;;;;;;;;11.67;100.00;99412.96;1777061;80;20129;-50
2022/10/31 03:21:40;;;;;;;;;;;;;;;11.67;100.00;99409.84;1757595;80;20112;-47
2022/10/31 03:24:08;;;;;;;;;;;;;;;11.68;100.00;99408.92;1753823;80;20124;-48
2022/10/31 03:26:38;;;;;;;;;;;;;;;11.68;100.00;99414.19;1763341;80;20112;-47
2022/10/31 03:29:10;;;;;;;;;;;;;;;11.68;100.00;99413.35;1763528;80;20096;-48
2022/10/31 03:31:43;;;;;;;;;;;;;;;11.65;100.00;99418.79;1769319;80;20242;-47
2022/10/31 03:34:11;;;;;;;;;;;;;;;11.64;100.00;99415.76;1785741;80;20233;-48
2022/10/31 03:36:39;;;;;;;;;;;;;;;11.66;100.00;99419.15;1787497;78;20438;-50
2022/10/31 03:39:08;;;;;;;;;;;;;;;11.64;100.00;99420.58;1786199;78;20161;-49
2022/10/31 03:41:39;;;;;;;;;;;;;;;11.64;100.00;99422.34;1788552;78;20130;-49
2022/10/31 03:44:09;;;;;;;;;;;;;;;11.64;100.00;99426.30;1789255;79;20106;-51
2022/10/31 03:46:35;;;;;;;;;;;;;;;11.63;100.00;99423.30;1729282;81;20124;-50
2022/10/31 03:49:02;;;;;;;;;;;;;;;11.63;100.00;99424.62;1740516;81;20143;-49
2022/10/31 03:51:38;;;;;;;;;;;;;;;11.61;100.00;99429.97;1756519;80;20112;-49
2022/10/31 03:54:28;;;;;;;;;;;;;;;11.62;100.00;99434.28;1765405;80;20452;-46
2022/10/31 03:57:13;;;;;;;;;;;;;;;11.63;100.00;99434.67;1765765;80;20124;-48
2022/10/31 03:59:45;;;;;;;;;;;;;;;11.64;100.00;99428.93;1729293;80;20420;-47
2022/10/31 04:02:14;;;;;;;;;;;;;;;11.63;100.00;99440.42;1724788;81;20412;-47
2022/10/31 04:04:43;;;;;;;;;;;;;;;11.59;100.00;99437.55;1726919;81;20119;-48
2022/10/31 04:07:10;;;;;;;;;;;;;;;11.56;100.00;99435.96;1708105;83;20101;-50
2022/10/31 04:09:38;;;;;;;;;;;;;;;11.58;100.00;99445.09;1690899;83;20145;-49
2022/10/31 04:12:08;;;;;;;;;;;;;;;11.59;100.00;99450.73;1710565;83;20109;-46
2022/10/31 04:14:37;;;;;;;;;;;;;;;11.57;100.00;99443.39;1698333;83;20145;-48
2022/10/31 04:17:07;;;;;;;;;;;;;;;11.56;100.00;99450.92;1693670;83;20185;-47
2022/10/31 04:19:34;;;;;;;;;;;;;;;11.54;100.00;99445.73;1700065;83;20150;-51
2022/10/31 04:22:01;;;;;;;;;;;;;;;11.51;100.00;99452.05;1692457;83;20209;-49
2022/10/31 04:24:27;;;;;;;;;;;;;;;11.47;100.00;99452.29;1701124;83;20110;-50
2022/10/31 04:26:54;;;;;;;;;;;;;;;11.47;100.00;99445.23;1694314;83;20111;-49
2022/10/31 04:29:20;;;;;;;;;;;;;;;11.46;100.00;99452.77;1689847;83;20122;-48
2022/10/31 04:31:47;;;;;;;;;;;;;;;11.47;100.00;99459.71;1695591;83;20110;-47
2022/10/31 04:34:14;;;;;;;;;;;;;;;11.48;100.00;99452.20;1696505;83;20143;-46
2022/10/31 04:36:40;;;;;;;;;;;;;;;11.45;100.00;99451.53;1687645;83;20101;-47
2022/10/31 04:39:07;;;;;;;;;;;;;;;11.41;100.00;99451.33;1698234;83;20117;-46
2022/10/31 04:41:34;;;;;;;;;;;;;;;11.39;100.00;99446.14;1700784;83;20133;-48
2022/10/31 04:44:00;;;;;;;;;;;;;;;11.36;100.00;99446.78;1704561;83;20106;-47
2022/10/31 04:46:27;;;;;;;;;;;;;;;11.36;100.00;99450.25;1707848;83;20236;-47
2022/10/31 04:48:53;;;;;;;;;;;;;;;11.35;100.00;99444.63;1697681;83;20146;-48
2022/10/31 04:51:20;;;;;;;;;;;;;;;11.35;100.00;99445.94;1699718;83;20187;-50
2022/10/31 04:53:46;;;;;;;;;;;;;;;11.32;100.00;99444.31;1706746;83;20109;-49
2022/10/31 04:56:13;;;;;;;;;;;;;;;11.22;100.00;99444.91;1707382;83;20180;-47
2022/10/31 04:58:40;;;;;;;;;;;;;;;11.18;100.00;99446.86;1695563;83;20140;-49
2022/10/31 05:01:06;;;;;;;;;;;;;;;11.23;100.00;99457.98;1703575;83;20118;-49
2022/10/31 05:03:33;;;;;;;;;;;;;;;11.19;100.00;99450.33;1697314;83;20138;-47
2022/10/31 05:05:59;;;;;;;;;;;;;;;11.18;100.00;99459.17;1707026;83;20117;-48
2022/10/31 05:08:26;;;;;;;;;;;;;;;11.13;100.00;99459.42;1697902;83;20108;-47
2022/10/31 05:10:52;;;;;;;;;;;;;;;11.10;100.00;99462.23;1700546;83;20113;-47
2022/10/31 05:13:19;;;;;;;;;;;;;;;11.10;100.00;99461.77;1701217;83;20362;-47
2022/10/31 05:15:45;;;;;;;;;;;;;;;11.07;100.00;99472.92;1702709;83;20133;-48
2022/10/31 05:18:12;;;;;;;;;;;;;;;11.07;100.00;99471.61;1712609;83;20121;-47
2022/10/31 05:20:38;;;;;;;;;;;;;;;11.05;100.00;99476.95;1696712;83;20439;-47
2022/10/31 05:23:05;;;;;;;;;;;;;;;11.01;100.00;99476.74;1697388;83;20185;-50
2022/10/31 05:25:31;;;;;;;;;;;;;;;10.99;100.00;99473.80;1696694;83;20140;-47
2022/10/31 05:27:58;;;;;;;;;;;;;;;10.97;100.00;99469.95;1704411;83;20129;-50
2022/10/31 05:30:27;;;;;;;;;;;;;;;10.93;100.00;99476.29;1693020;82;20109;-47
2022/10/31 05:32:54;;;;;;;;;;;;;;;10.95;100.00;99477.05;1707737;83;20142;-49
2022/10/31 05:35:23;;;;;;;;;;;;;;;10.92;100.00;99478.55;1707040;83;20164;-50
2022/10/31 05:37:50;;;;;;;;;;;;;;;10.94;100.00;99474.89;1694550;83;20140;-47
2022/10/31 05:40:18;;;;;;;;;;;;;;;10.94;100.00;99476.69;1698825;83;20120;-50
2022/10/31 05:42:46;;;;;;;;;;;;;;;10.95;100.00;99471.79;1705309;83;20109;-49
2022/10/31 05:45:15;;;;;;;;;;;;;;;10.92;100.00;99468.03;1698018;83;20522;-51
2022/10/31 05:47:42;;;;;;;;;;;;;;;10.94;100.00;99471.42;1694558;83;20119;-50
2022/10/31 05:50:09;;;;;;;;;;;;;;;10.91;100.00;99472.90;1699641;83;20134;-47
2022/10/31 05:52:36;;;;;;;;;;;;;;;10.94;100.00;99476.69;1700592;83;20110;-49
2022/10/31 05:55:03;;;;;;;;;;;;;;;10.93;100.00;99479.80;1695098;83;20134;-50
2022/10/31 05:57:29;;;;;;;;;;;;;;;10.94;100.00;99479.32;1710308;83;20426;-52
2022/10/31 05:59:56;;;;;;;;;;;;;;;10.96;100.00;99478.77;1671904;83;20428;-46
2022/10/31 06:02:22;;;;;;;;;;;;;;;10.95;100.00;99477.05;1699390;83;20132;-47
2022/10/31 06:04:49;;;;;;;;;;;;;;;10.95;100.00;99470.47;1701181;83;20424;-48
2022/10/31 06:07:15;;;;;;;;;;;;;;;10.95;100.00;99470.47;1705663;83;20117;-49
2022/10/31 06:09:42;;;;;;;;;;;;;;;10.98;100.00;99474.73;1699839;83;20448;-48
2022/10/31 06:12:08;;;;;;;;;;;;;;;10.97;100.00;99476.53;1693501;83;20410;-47
2022/10/31 06:14:35;;;;;;;;;;;;;;;10.99;100.00;99481.24;1712016;83;20447;-48
2022/10/31 06:17:02;;;;;;;;;;;;;;;10.94;100.00;99476.69;1709911;83;20419;-49
2022/10/31 06:19:28;;;;;;;;;;;;;;;10.99;100.00;99481.24;1696746;83;20404;-49
2022/10/31 06:21:55;;;;;;;;;;;;;;;10.99;100.00;99476.42;1702155;83;20441;-51
2022/10/31 06:24:21;;;;;;;;;;;;;;;10.99;100.00;99483.00;1702650;83;20510;-51
2022/10/31 06:26:48;;;;;;;;;;;;;;;10.98;100.00;99486.11;1710511;83;20458;-49
2022/10/31 06:29:14;;;;;;;;;;;;;;;10.96;100.00;99484.03;1694965;83;20444;-47
2022/10/31 06:31:41;;;;;;;;;;;;;;;10.94;100.00;99485.89;1705472;83;20415;-48
2022/10/31 06:34:07;;;;;;;;;;;;;;;10.97;100.00;99495.39;1705741;83;20418;-49
2022/10/31 06:36:36;;;;;;;;;;;;;;;11.00;100.00;99500.50;1711086;83;20109;-47
2022/10/31 06:39:03;;;;;;;;;;;;;;;10.97;100.00;99498.90;1693098;83;20599;-47
2022/10/31 06:41:30;;;;;;;;;;;;;;;10.97;100.00;99498.90;1707961;83;20141;-48
2022/10/31 06:43:56;;;;;;;;;;;;;;;10.85;100.00;99500.86;1704684;83;20445;-48
2022/10/31 06:46:23;;;;;;;;;;;;;;;10.90;100.00;99504.10;1708231;83;20404;-50
2022/10/31 06:48:49;;;;;;;;;;;;;;;10.93;100.00;99507.42;1686584;83;21075;-52
2022/10/31 06:51:16;;;;;;;;;;;;;;;10.95;100.00;99512.13;1694821;83;20141;-52
2022/10/31 06:53:42;;;;;;;;;;;;;;;11.00;100.00;99508.39;1695613;82;20113;-50
2022/10/31 06:56:09;;;;;;;;;;;;;;;10.97;100.00;99508.55;1703396;83;20101;-49
2022/10/31 06:58:35;;;;;;;;;;;;;;;10.90;100.00;99516.78;1695940;83;20109;-49
2022/10/31 07:01:02;;;;;;;;;;;;;;;10.90;100.00;99514.63;1701549;83;20125;-49
2022/10/31 07:03:29;;;;;;;;;;;;;;;10.83;100.00;99520.67;1699727;83;20109;-47
2022/10/31 07:05:56;;;;;;;;;;;;;;;10.84;100.00;99522.38;1700260;83;20138;-47
2022/10/31 07:08:23;;;;;;;;;;;;;;;10.90;100.00;99527.31;1706179;83;20419;-49
2022/10/31 07:10:55;;;;;;;;;;;;;;;10.79;100.00;99531.42;1689549;83;20403;-48
2022/10/31 07:13:25;;;;;;;;;;;;;;;10.76;100.00;99538.55;1705990;83;20117;-48
2022/10/31 07:15:52;;;;;;;;;;;;;;;10.76;100.00;99542.48;1688050;83;20390;-47
2022/10/31 07:18:19;;;;;;;;;;;;;;;10.81;100.00;99540.11;1693890;83;20145;-50
2022/10/31 07:20:45;;;;;;;;;;;;;;;10.77;100.00;99544.68;1699256;83;20233;-52
2022/10/31 07:23:12;;;;;;;;;;;;;;;10.82;100.00;99547.89;1704118;83;20109;-50
2022/10/31 07:25:39;;;;;;;;;;;;;;;10.86;100.00;99549.45;1709211;83;20117;-48
2022/10/31 07:28:06;;;;;;;;;;;;;;;10.95;100.00;99553.36;1694541;83;20117;-48
2022/10/31 07:30:33;;;;;;;;;;;;;;;11.01;100.00;99554.38;1719930;80;20360;-48
2022/10/31 07:33:00;;;;;;;;;;;;;;;11.07;100.00;99554.03;1768073;80;20133;-48
2022/10/31 07:35:28;;;;;;;;;;;;;;;11.15;100.00;99556.25;1743032;80;20153;-51
2022/10/31 07:37:54;;;;;;;;;;;;;;;11.20;100.00;99559.97;1753319;80;20417;-47
2022/10/31 07:40:22;;;;;;;;;;;;;;;11.22;100.00;99555.47;1745981;80;20176;-47
2022/10/31 07:42:51;;;;;;;;;;;;;;;11.28;100.00;99558.63;1751781;80;20112;-48
2022/10/31 07:45:19;;;;;;;;;;;;;;;11.34;100.00;99560.92;1757804;80;20116;-48
2022/10/31 07:47:48;;;;;;;;;;;;;;;11.38;100.00;99561.60;1753876;80;20112;-48
2022/10/31 07:50:17;;;;;;;;;;;;;;;11.40;100.00;99558.41;1749720;80;20104;-49
2022/10/31 07:52:44;;;;;;;;;;;;;;;11.44;100.00;99564.36;1754591;80;20435;-50
2022/10/31 07:55:11;;;;;;;;;;;;;;;11.46;100.00;99563.37;1751945;80;20401;-52
2022/10/31 07:57:37;;;;;;;;;;;;;;;11.51;100.00;99566.61;1751296;80;20410;-49
2022/10/31 08:00:07;;;;;;;;;;;;;;;11.53;100.00;99567.37;1747559;81;20145;-51
2022/10/31 08:02:33;;;;;;;;;;;;;;;11.57;100.00;99566.73;1759004;80;20212;-49
2022/10/31 08:05:01;;;;;;;;;;;;;;;11.61;100.00;99557.72;1749236;80;20406;-51
2022/10/31 08:07:28;;;;;;;;;;;;;;;11.65;100.00;99561.03;1759363;80;20109;-49
2022/10/31 08:09:56;;;;;;;;;;;;;;;11.70;100.00;99558.52;1749946;80;20148;-51
2022/10/31 08:12:22;;;;;;;;;;;;;;;11.76;100.00;99557.80;1743136;80;20406;-48
2022/10/31 08:14:50;;;;;;;;;;;;;;;11.87;100.00;99560.68;1754230;80;20113;-50
2022/10/31 08:17:16;;;;;;;;;;;;;;;11.92;100.00;99562.62;1747858;80;20144;-48
2022/10/31 08:19:43;;;;;;;;;;;;;;;11.92;100.00;99563.10;1756440;80;20385;-49
2022/10/31 08:22:09;;;;;;;;;;;;;;;11.93;100.00;99564.78;1752629;80;20526;-52
2022/10/31 08:24:36;;;;;;;;;;;;;;;11.97;100.00;99570.25;1742653;81;20437;-48
2022/10/31 08:27:02;;;;;;;;;;;;;;;11.98;100.00;99570.17;1742421;80;20520;-51
2022/10/31 08:29:29;;;;;;;;;;;;;;;12.04;100.00;99572.48;1746156;80;20177;-47
2022/10/31 08:31:57;;;;;;;;;;;;;;;11.98;100.00;99568.86;1744431;80;20105;-50
2022/10/31 08:34:24;;;;;;;;;;;;;;;12.03;100.00;99568.61;1744488;80;20101;-51
2022/10/31 08:36:51;;;;;;;;;;;;;;;12.05;100.00;99572.00;1755601;80;20105;-48
2022/10/31 08:39:18;;;;;;;;;;;;;;;12.05;100.00;99575.95;1742955;80;20132;-47
2022/10/31 08:41:45;;;;;;;;;;;;;;;12.11;100.00;99575.59;1744059;81;20108;-50
2022/10/31 08:44:11;;;;;;;;;;;;;;;12.15;100.00;99573.19;1747550;80;20101;-50
2022/10/31 08:46:38;;;;;;;;;;;;;;;12.18;100.00;99571.67;1744473;81;20113;-48
2022/10/31 08:49:04;;;;;;;;;;;;;;;12.21;100.00;99572.83;1752877;80;20768;-50
2022/10/31 08:51:31;;;;;;;;;;;;;;;12.27;100.00;99568.50;1746390;80;20133;-50
2022/10/31 08:53:57;;;;;;;;;;;;;;;12.32;100.00;99566.09;1743476;80;20109;-49
2022/10/31 08:56:24;;;;;;;;;;;;;;;12.36;100.00;99571.08;1742429;81;20129;-52
2022/10/31 08:58:53;;;;;;;;;;;;;;;12.34;100.00;99576.08;1747748;81;20112;-47
2022/10/31 09:01:19;;;;;;;;;;;;;;;12.41;100.00;99572.98;1757735;80;20176;-48
2022/10/31 09:03:46;;;;;;;;;;;;;;;12.43;100.00;99576.38;1752344;80;20156;-51
2022/10/31 09:06:12;;;;;;;;;;;;;;;12.47;100.00;99569.98;1742514;80;20113;-48
2022/10/31 09:08:39;;;;;;;;;;;;;;;12.52;100.00;99576.31;1755802;80;20112;-53
2022/10/31 09:11:06;;;;;;;;;;;;;;;12.57;100.00;99579.54;1744983;80;20136;-49
2022/10/31 09:13:33;;;;;;;;;;;;;;;12.65;100.00;99582.55;1748651;80;20105;-49
2022/10/31 09:15:59;;;;;;;;;;;;;;;12.64;100.00;99582.20;1758973;80;20141;-50
2022/10/31 09:18:29;;;;;;;;;;;;;;;12.63;100.00;99579.16;1768893;80;20109;-48
2022/10/31 09:20:58;;;;;;;;;;;;;;;12.71;100.00;99583.98;1753272;80;20421;-50
2022/10/31 09:23:24;;;;;;;;;;;;;;;12.72;100.00;99583.05;1741289;81;20136;-51
2022/10/31 09:25:52;;;;;;;;;;;;;;;12.80;100.00;99587.86;1746134;81;20117;-51
2022/10/31 09:28:20;;;;;;;;;;;;;;;12.89;100.00;99583.35;1745343;80;20425;-50
2022/10/31 09:30:49;;;;;;;;;;;;;;;12.97;100.00;99581.11;1755538;80;20117;-48
2022/10/31 09:33:16;;;;;;;;;;;;;;;13.06;100.00;99584.52;1742254;80;20101;-51
2022/10/31 09:35:43;;;;;;;;;;;;;;;13.15;100.00;99580.91;1743988;80;20133;-51
2022/10/31 09:38:14;;;;;;;;;;;;;;;13.19;100.00;99589.05;1742738;81;20405;-49
2022/10/31 09:40:46;;;;;;;;;;;;;;;13.25;100.00;99584.22;1748438;80;20176;-51
2022/10/31 09:43:22;;;;;;;;;;;;;;;13.35;100.00;99590.28;1743779;80;20442;-46
2022/10/31 09:46:02;;;;;;;;;;;;;;;13.42;100.00;99587.64;1741795;81;20130;-47
2022/10/31 09:49:02;;;;;;;;;;;;;;;13.46;100.00;99586.50;1750863;80;20121;-47
2022/10/31 09:51:33;;;;;;;;;;;;;;;13.54;100.00;99592.64;1742470;80;20196;-49
2022/10/31 09:54:02;;;;;;;;;;;;;;;13.55;100.00;99582.44;1746677;80;20113;-47
2022/10/31 09:56:31;;;;;;;;;;;;;;;13.61;100.00;99590.83;1729340;80;20125;-48
2022/10/31 09:59:00;;;;;;;;;;;;;;;13.66;100.00;99587.91;1727541;81;20109;-48
2022/10/31 10:01:48;;;;;;;;;;;;;;;13.73;100.00;99597.60;1747379;80;20104;-49
2022/10/31 10:04:38;;;;;;;;;;;;;;;13.79;100.00;99592.78;1747991;80;20402;-51
2022/10/31 10:07:34;;;;;;;;;;;;;;;13.88;100.00;99591.80;1751299;80;20106;-49
2022/10/31 10:10:04;;;;;;;;;;;;;;;13.98;100.00;99589.80;1750689;80;20132;-49
2022/10/31 10:13:02;;;;;;;;;;;;;;;14.06;100.00;99590.64;1720337;81;20118;-47
2022/10/31 10:15:35;;;;;;;;;;;;;;;14.20;100.00;99589.23;1756127;80;20132;-50
2022/10/31 10:18:06;;;;;;;;;;;;;;;14.26;100.00;99587.15;1725149;80;20100;-49
2022/10/31 10:20:42;;;;;;;;;;;;;;;14.32;100.00;99585.44;1743222;80;20134;-48
2022/10/31 10:23:21;;;;;;;;;;;;;;;14.37;100.00;99588.60;1725637;80;20143;-51
2022/10/31 10:25:51;;;;;;;;;;;;;;;14.38;100.00;99587.18;1728865;81;20099;-48
2022/10/31 10:28:21;;;;;;;;;;;;;;;14.45;100.00;99586.31;1739831;80;20115;-49
2022/10/31 10:31:10;;;;;;;;;;;;;;;14.50;100.00;99585.53;1734580;80;20104;-51
2022/10/31 10:33:52;;;;;;;;;;;;;;;14.56;100.00;99579.81;1764781;80;20168;-50
2022/10/31 10:36:22;;;;;;;;;;;;;;;14.67;100.00;99579.13;1747074;81;20170;-48
2022/10/31 10:38:54;;;;;;;;;;;;;;;14.72;100.00;99580.16;1734233;80;20152;-49
2022/10/31 10:41:23;;;;;;;;;;;;;;;14.78;100.00;99583.20;1744830;81;20131;-50
2022/10/31 10:43:50;;;;;;;;;;;;;;;14.90;100.00;99588.64;1755240;80;20104;-50
2022/10/31 10:49:33;;;;;;;;;;;;;;;14.87;99.57;99588.36;1733426;81;20114;-48
2022/10/31 10:52:15;;;;;;;;;;;;;;;14.95;99.87;99585.18;1738638;80;20113;-51
2022/10/31 10:55:15;;;;;;;;;;;;;;;14.94;99.94;99583.02;1741711;80;20110;-50
2022/10/31 10:57:54;;;;;;;;;;;;;;;15.00;100.00;99575.61;1726073;80;20109;-49
2022/10/31 11:00:27;;;;;;;;;;;;;;;15.07;100.00;99577.72;1740988;80;20196;-50
2022/10/31 11:02:55;;;;;;;;;;;;;;;15.15;100.00;99583.80;1734506;81;20101;-49
2022/10/31 11:05:24;;;;;;;;;;;;;;;15.23;98.62;99584.13;1750105;80;20791;-50
2022/10/31 11:07:51;;;;;;;;;;;;;;;15.28;99.03;99584.66;1726630;81;20468;-53
2022/10/31 11:10:18;;;;;;;;;;;;;;;15.36;98.63;99580.14;1751818;80;20947;-49
2022/10/31 11:13:05;;;;;;;;;;;;;;;15.34;97.99;99582.05;1738196;80;20472;-47
2022/10/31 11:15:35;;;;;;;;;;;;;;;15.43;98.26;99587.19;1760466;80;20445;-47
2022/10/31 11:18:02;;;;;;;;;;;;;;;15.38;97.54;99591.47;1726328;80;20096;-51
2022/10/31 11:20:34;;;;;;;;;;;;;;;15.44;98.00;99589.70;1744605;80;20201;-47
2022/10/31 11:23:07;;;;;;;;;;;;;;;15.41;97.56;99587.74;1739586;80;20126;-49
2022/10/31 11:25:34;;;;;;;;;;;;;;;15.53;97.69;99592.19;1731366;81;20109;-49
2022/10/31 11:28:02;;;;;;;;;;;;;;;15.60;96.84;99586.81;1746549;81;20117;-49
2022/10/31 11:30:30;;;;;;;;;;;;;;;15.58;96.57;99584.76;1748568;80;20104;-47
2022/10/31 11:32:57;;;;;;;;;;;;;;;15.61;97.12;99591.17;1738138;80;20104;-46
2022/10/31 11:35:24;;;;;;;;;;;;;;;15.78;97.43;99589.15;1750693;80;20104;-48
2022/10/31 11:37:53;;;;;;;;;;;;;;;15.95;96.60;99582.13;1705161;80;20114;-51
2022/10/31 11:40:22;;;;;;;;;;;;;;;15.95;95.34;99579.95;1740756;80;20115;-51
2022/10/31 11:42:51;;;;;;;;;;;;;;;16.02;95.77;99575.41;1734769;80;20113;-49
2022/10/31 11:45:25;;;;;;;;;;;;;;;16.08;95.29;99581.61;1732149;80;20603;-52
2022/10/31 11:47:54;;;;;;;;;;;;;;;16.11;94.42;99578.71;1760337;80;20116;-51
2022/10/31 11:50:24;;;;;;;;;;;;;;;16.14;94.39;99581.64;1742039;80;20453;-49
2022/10/31 11:52:52;;;;;;;;;;;;;;;16.24;94.72;99580.47;1735520;80;20153;-50
2022/10/31 11:55:34;;;;;;;;;;;;;;;16.42;95.23;99576.43;1736135;81;20107;-48
2022/10/31 11:58:00;;;;;;;;;;;;;;;16.50;93.01;99575.39;1708810;82;20101;-49
2022/10/31 12:00:33;;;;;;;;;;;;;;;16.46;93.12;99576.59;1776712;79;20112;-52
2022/10/31 12:03:25;;;;;;;;;;;;;;;16.39;91.99;99581.13;1753752;80;20136;-51
2022/10/31 12:06:00;;;;;;;;;;;;;;;16.42;92.64;99579.09;1753240;80;20645;-48
2022/10/31 12:08:34;;;;;;;;;;;;;;;16.42;92.23;99576.43;1735513;80;20116;-51
2022/10/31 12:11:15;;;;;;;;;;;;;;;16.53;91.64;99577.44;1746908;80;20457;-51
2022/10/31 12:13:51;;;;;;;;;;;;;;;16.75;92.34;99574.84;1769750;80;20169;-49
2022/10/31 12:16:27;;;;;;;;;;;;;;;16.87;91.30;99579.25;1785595;78;20102;-47
2022/10/31 12:19:10;;;;;;;;;;;;;;;16.82;90.25;99572.56;1740854;80;20115;-51
2022/10/31 12:21:57;;;;;;;;;;;;;;;16.84;90.32;99574.16;1768538;79;20210;-50
2022/10/31 12:24:34;;;;;;;;;;;;;;;16.81;89.97;99570.40;1725952;81;20101;-48
2022/10/31 12:27:10;;;;;;;;;;;;;;;16.86;90.03;99565.62;1776547;79;20122;-50
2022/10/31 12:29:52;;;;;;;;;;;;;;;16.86;90.05;99565.62;1728046;80;20099;-49
2022/10/31 12:32:31;;;;;;;;;;;;;;;16.88;89.79;99563.69;1785391;78;20414;-48
2022/10/31 12:35:05;;;;;;;;;;;;;;;16.87;89.75;99561.98;1770480;78;20120;-48
2022/10/31 12:37:59;;;;;;;;;;;;;;;16.97;90.83;99558.61;1755775;80;20525;-48
2022/10/31 12:40:35;;;;;;;;;;;;;;;16.98;91.12;99553.67;1744327;79;20187;-51
2022/10/31 12:43:23;;;;;;;;;;;;;;;16.95;90.47;99550.75;1726202;80;20113;-51
2022/10/31 12:45:57;;;;;;;;;;;;;;;17.00;90.90;99548.59;1726074;81;20511;-48
2022/10/31 12:48:36;;;;;;;;;;;;;;;17.04;90.48;99548.70;1758480;79;20124;-50
2022/10/31 12:51:15;;;;;;;;;;;;;;;17.13;91.14;99550.30;1753899;80;20195;-48
2022/10/31 12:53:54;;;;;;;;;;;;;;;17.18;91.19;99542.32;1767547;79;20116;-47
2022/10/31 12:56:37;;;;;;;;;;;;;;;17.26;91.39;99545.70;1771022;80;20120;-48
2022/10/31 12:59:33;;;;;;;;;;;;;;;17.34;91.56;99547.27;1752271;80;20112;-50
2022/10/31 13:02:03;;;;;;;;;;;;;;;17.37;89.94;99548.38;1758131;80;20116;-50